sensor_id;sensor_type;location;lat;lon;timestamp;temperature;humidity
68766;DHT22;55756;45.582;11.484;2023-03-05T00:00:40;11.30;55.40
68766;DHT22;55756;45.582;11.484;2023-03-05T00:03:06;11.20;55.30
68766;DHT22;55756;45.582;11.484;2023-03-05T00:05:31;11.20;55.50
68766;DHT22;55756;45.582;11.484;2023-03-05T00:08:00;11.20;55.60
68766;DHT22;55756;45.582;11.484;2023-03-05T00:10:26;11.20;55.50
68766;DHT22;55756;45.582;11.484;2023-03-05T00:12:52;11.10;55.40
68766;DHT22;55756;45.582;11.484;2023-03-05T00:15:18;11.10;55.20
68766;DHT22;55756;45.582;11.484;2023-03-05T00:17:43;11.10;55.20
68766;DHT22;55756;45.582;11.484;2023-03-05T00:20:09;11.10;55.30
68766;DHT22;55756;45.582;11.484;2023-03-05T00:22:36;11.00;55.20
68766;DHT22;55756;45.582;11.484;2023-03-05T00:25:02;11.00;55.40
68766;DHT22;55756;45.582;11.484;2023-03-05T00:27:28;11.00;55.30
68766;DHT22;55756;45.582;11.484;2023-03-05T00:29:54;11.00;55.40
68766;DHT22;55756;45.582;11.484;2023-03-05T00:32:20;11.00;55.40
68766;DHT22;55756;45.582;11.484;2023-03-05T00:34:45;10.90;55.60
68766;DHT22;55756;45.582;11.484;2023-03-05T00:37:12;10.90;55.90
68766;DHT22;55756;45.582;11.484;2023-03-05T00:39:38;10.90;55.90
68766;DHT22;55756;45.582;11.484;2023-03-05T00:42:10;10.90;55.90
68766;DHT22;55756;45.582;11.484;2023-03-05T00:44:35;10.90;56.00
68766;DHT22;55756;45.582;11.484;2023-03-05T00:47:01;10.90;55.90
68766;DHT22;55756;45.582;11.484;2023-03-05T00:49:30;10.90;55.80
68766;DHT22;55756;45.582;11.484;2023-03-05T00:51:56;10.90;55.80
68766;DHT22;55756;45.582;11.484;2023-03-05T00:54:22;10.80;55.70
68766;DHT22;55756;45.582;11.484;2023-03-05T00:56:48;10.80;55.50
68766;DHT22;55756;45.582;11.484;2023-03-05T00:59:14;10.80;55.30
68766;DHT22;55756;45.582;11.484;2023-03-05T01:01:40;10.80;55.30
68766;DHT22;55756;45.582;11.484;2023-03-05T01:04:06;10.80;55.00
68766;DHT22;55756;45.582;11.484;2023-03-05T01:06:31;10.70;54.80
68766;DHT22;55756;45.582;11.484;2023-03-05T01:08:57;10.70;54.80
68766;DHT22;55756;45.582;11.484;2023-03-05T01:11:24;10.70;54.80
68766;DHT22;55756;45.582;11.484;2023-03-05T01:13:50;10.60;54.90
68766;DHT22;55756;45.582;11.484;2023-03-05T01:16:16;10.60;55.30
68766;DHT22;55756;45.582;11.484;2023-03-05T01:18:42;10.60;55.30
68766;DHT22;55756;45.582;11.484;2023-03-05T01:21:08;10.60;55.30
68766;DHT22;55756;45.582;11.484;2023-03-05T01:23:33;10.60;55.30
68766;DHT22;55756;45.582;11.484;2023-03-05T01:26:03;10.50;55.30
68766;DHT22;55756;45.582;11.484;2023-03-05T01:28:29;10.50;55.20
68766;DHT22;55756;45.582;11.484;2023-03-05T01:30:55;10.40;55.50
68766;DHT22;55756;45.582;11.484;2023-03-05T01:33:21;10.40;55.60
68766;DHT22;55756;45.582;11.484;2023-03-05T01:35:47;10.40;56.00
68766;DHT22;55756;45.582;11.484;2023-03-05T01:38:14;10.40;56.20
68766;DHT22;55756;45.582;11.484;2023-03-05T01:40:43;10.40;56.20
68766;DHT22;55756;45.582;11.484;2023-03-05T01:45:35;10.40;56.10
68766;DHT22;55756;45.582;11.484;2023-03-05T01:48:01;10.40;56.50
68766;DHT22;55756;45.582;11.484;2023-03-05T01:50:27;10.30;56.60
68766;DHT22;55756;45.582;11.484;2023-03-05T01:53:05;10.30;56.60
68766;DHT22;55756;45.582;11.484;2023-03-05T01:55:33;10.30;56.40
68766;DHT22;55756;45.582;11.484;2023-03-05T01:58:09;10.30;56.30
68766;DHT22;55756;45.582;11.484;2023-03-05T02:00:41;10.30;56.20
68766;DHT22;55756;45.582;11.484;2023-03-05T02:03:09;10.30;55.80
68766;DHT22;55756;45.582;11.484;2023-03-05T02:05:38;10.30;55.70
68766;DHT22;55756;45.582;11.484;2023-03-05T02:08:08;10.30;55.00
68766;DHT22;55756;45.582;11.484;2023-03-05T02:10:39;10.20;55.10
68766;DHT22;55756;45.582;11.484;2023-03-05T02:13:09;10.20;55.40
68766;DHT22;55756;45.582;11.484;2023-03-05T02:15:37;10.10;55.40
68766;DHT22;55756;45.582;11.484;2023-03-05T02:18:04;10.10;55.50
68766;DHT22;55756;45.582;11.484;2023-03-05T02:20:43;10.10;55.70
68766;DHT22;55756;45.582;11.484;2023-03-05T02:23:09;10.10;55.80
68766;DHT22;55756;45.582;11.484;2023-03-05T02:25:34;10.10;55.90
68766;DHT22;55756;45.582;11.484;2023-03-05T02:30:48;10.10;56.20
68766;DHT22;55756;45.582;11.484;2023-03-05T02:33:14;10.10;56.20
68766;DHT22;55756;45.582;11.484;2023-03-05T02:35:41;10.20;56.00
68766;DHT22;55756;45.582;11.484;2023-03-05T02:38:09;10.10;55.90
68766;DHT22;55756;45.582;11.484;2023-03-05T02:40:36;10.10;55.80
68766;DHT22;55756;45.582;11.484;2023-03-05T02:43:02;10.00;55.40
68766;DHT22;55756;45.582;11.484;2023-03-05T02:45:28;10.00;55.50
68766;DHT22;55756;45.582;11.484;2023-03-05T02:47:54;10.00;55.60
68766;DHT22;55756;45.582;11.484;2023-03-05T02:50:20;9.90;55.70
68766;DHT22;55756;45.582;11.484;2023-03-05T02:52:46;9.90;55.60
68766;DHT22;55756;45.582;11.484;2023-03-05T02:55:15;9.90;55.40
68766;DHT22;55756;45.582;11.484;2023-03-05T02:57:49;9.90;55.30
68766;DHT22;55756;45.582;11.484;2023-03-05T03:00:16;9.80;55.40
68766;DHT22;55756;45.582;11.484;2023-03-05T03:02:42;9.80;55.80
68766;DHT22;55756;45.582;11.484;2023-03-05T03:05:08;9.80;55.80
68766;DHT22;55756;45.582;11.484;2023-03-05T03:07:33;9.80;55.40
68766;DHT22;55756;45.582;11.484;2023-03-05T03:10:02;9.80;56.00
68766;DHT22;55756;45.582;11.484;2023-03-05T03:12:28;9.80;56.10
68766;DHT22;55756;45.582;11.484;2023-03-05T03:14:54;9.80;56.10
68766;DHT22;55756;45.582;11.484;2023-03-05T03:17:19;9.80;56.10
68766;DHT22;55756;45.582;11.484;2023-03-05T03:19:45;9.80;56.10
68766;DHT22;55756;45.582;11.484;2023-03-05T03:22:12;9.70;56.20
68766;DHT22;55756;45.582;11.484;2023-03-05T03:24:41;9.70;56.40
68766;DHT22;55756;45.582;11.484;2023-03-05T03:27:07;9.70;56.50
68766;DHT22;55756;45.582;11.484;2023-03-05T03:29:34;9.80;56.30
68766;DHT22;55756;45.582;11.484;2023-03-05T03:32:00;9.70;56.30
68766;DHT22;55756;45.582;11.484;2023-03-05T03:34:26;9.70;56.50
68766;DHT22;55756;45.582;11.484;2023-03-05T03:36:52;9.70;56.50
68766;DHT22;55756;45.582;11.484;2023-03-05T03:39:19;9.70;56.30
68766;DHT22;55756;45.582;11.484;2023-03-05T03:41:49;9.70;56.20
68766;DHT22;55756;45.582;11.484;2023-03-05T03:44:15;9.70;56.30
68766;DHT22;55756;45.582;11.484;2023-03-05T03:46:45;9.70;55.90
68766;DHT22;55756;45.582;11.484;2023-03-05T03:49:19;9.60;56.10
68766;DHT22;55756;45.582;11.484;2023-03-05T03:51:45;9.60;56.40
68766;DHT22;55756;45.582;11.484;2023-03-05T03:54:13;9.60;56.60
68766;DHT22;55756;45.582;11.484;2023-03-05T03:56:39;9.60;56.90
68766;DHT22;55756;45.582;11.484;2023-03-05T03:59:05;9.60;57.00
68766;DHT22;55756;45.582;11.484;2023-03-05T04:01:30;9.60;57.30
68766;DHT22;55756;45.582;11.484;2023-03-05T04:03:56;9.60;57.40
68766;DHT22;55756;45.582;11.484;2023-03-05T04:06:22;9.60;57.40
68766;DHT22;55756;45.582;11.484;2023-03-05T04:08:48;9.60;57.30
68766;DHT22;55756;45.582;11.484;2023-03-05T04:11:14;9.60;56.90
68766;DHT22;55756;45.582;11.484;2023-03-05T04:13:40;9.50;56.60
68766;DHT22;55756;45.582;11.484;2023-03-05T04:16:06;9.50;57.10
68766;DHT22;55756;45.582;11.484;2023-03-05T04:18:32;9.50;57.00
68766;DHT22;55756;45.582;11.484;2023-03-05T04:20:58;9.40;57.30
68766;DHT22;55756;45.582;11.484;2023-03-05T04:23:24;9.50;57.30
68766;DHT22;55756;45.582;11.484;2023-03-05T04:25:50;9.40;57.30
68766;DHT22;55756;45.582;11.484;2023-03-05T04:28:15;9.40;57.30
68766;DHT22;55756;45.582;11.484;2023-03-05T04:30:42;9.40;57.00
68766;DHT22;55756;45.582;11.484;2023-03-05T04:33:08;9.40;56.90
68766;DHT22;55756;45.582;11.484;2023-03-05T04:35:34;9.40;56.70
68766;DHT22;55756;45.582;11.484;2023-03-05T04:38:00;9.40;56.40
68766;DHT22;55756;45.582;11.484;2023-03-05T04:40:26;9.40;56.20
68766;DHT22;55756;45.582;11.484;2023-03-05T04:42:51;9.30;56.20
68766;DHT22;55756;45.582;11.484;2023-03-05T04:45:17;9.30;56.40
68766;DHT22;55756;45.582;11.484;2023-03-05T04:47:43;9.30;56.20
68766;DHT22;55756;45.582;11.484;2023-03-05T04:50:10;9.30;56.10
68766;DHT22;55756;45.582;11.484;2023-03-05T04:52:40;9.20;55.80
68766;DHT22;55756;45.582;11.484;2023-03-05T04:55:07;9.20;56.30
68766;DHT22;55756;45.582;11.484;2023-03-05T04:57:34;9.20;56.70
68766;DHT22;55756;45.582;11.484;2023-03-05T05:00:00;9.20;57.00
68766;DHT22;55756;45.582;11.484;2023-03-05T05:02:26;9.30;57.20
68766;DHT22;55756;45.582;11.484;2023-03-05T05:04:52;9.20;57.20
68766;DHT22;55756;45.582;11.484;2023-03-05T05:07:18;9.20;57.40
68766;DHT22;55756;45.582;11.484;2023-03-05T05:09:44;9.20;57.50
68766;DHT22;55756;45.582;11.484;2023-03-05T05:12:10;9.20;57.30
68766;DHT22;55756;45.582;11.484;2023-03-05T05:14:35;9.20;57.30
68766;DHT22;55756;45.582;11.484;2023-03-05T05:17:01;9.20;57.20
68766;DHT22;55756;45.582;11.484;2023-03-05T05:19:35;9.20;57.30
68766;DHT22;55756;45.582;11.484;2023-03-05T05:22:01;9.20;57.10
68766;DHT22;55756;45.582;11.484;2023-03-05T05:24:27;9.10;56.80
68766;DHT22;55756;45.582;11.484;2023-03-05T05:26:55;9.10;56.60
68766;DHT22;55756;45.582;11.484;2023-03-05T05:29:22;9.10;56.50
68766;DHT22;55756;45.582;11.484;2023-03-05T05:31:48;9.10;56.30
68766;DHT22;55756;45.582;11.484;2023-03-05T05:34:15;9.10;56.40
68766;DHT22;55756;45.582;11.484;2023-03-05T05:36:40;9.10;56.20
68766;DHT22;55756;45.582;11.484;2023-03-05T05:39:06;9.10;56.10
68766;DHT22;55756;45.582;11.484;2023-03-05T05:41:32;9.10;56.30
68766;DHT22;55756;45.582;11.484;2023-03-05T05:43:57;9.10;56.10
68766;DHT22;55756;45.582;11.484;2023-03-05T05:46:24;9.00;56.40
68766;DHT22;55756;45.582;11.484;2023-03-05T05:48:50;9.10;56.50
68766;DHT22;55756;45.582;11.484;2023-03-05T05:51:18;9.10;56.40
68766;DHT22;55756;45.582;11.484;2023-03-05T05:53:45;9.10;56.60
68766;DHT22;55756;45.582;11.484;2023-03-05T05:56:11;9.10;56.40
68766;DHT22;55756;45.582;11.484;2023-03-05T05:58:40;9.00;56.50
68766;DHT22;55756;45.582;11.484;2023-03-05T06:01:35;9.00;56.40
68766;DHT22;55756;45.582;11.484;2023-03-05T06:04:01;9.00;56.30
68766;DHT22;55756;45.582;11.484;2023-03-05T06:06:27;9.00;56.20
68766;DHT22;55756;45.582;11.484;2023-03-05T06:08:54;9.00;56.10
68766;DHT22;55756;45.582;11.484;2023-03-05T06:11:20;8.90;56.30
68766;DHT22;55756;45.582;11.484;2023-03-05T06:13:47;9.00;56.20
68766;DHT22;55756;45.582;11.484;2023-03-05T06:16:19;9.00;56.00
68766;DHT22;55756;45.582;11.484;2023-03-05T06:18:45;8.90;56.00
68766;DHT22;55756;45.582;11.484;2023-03-05T06:21:13;8.90;55.90
68766;DHT22;55756;45.582;11.484;2023-03-05T06:23:40;8.90;56.00
68766;DHT22;55756;45.582;11.484;2023-03-05T06:26:07;8.90;56.20
68766;DHT22;55756;45.582;11.484;2023-03-05T06:28:33;9.00;56.30
68766;DHT22;55756;45.582;11.484;2023-03-05T06:31:08;9.00;56.50
68766;DHT22;55756;45.582;11.484;2023-03-05T06:33:35;9.00;56.60
68766;DHT22;55756;45.582;11.484;2023-03-05T06:36:10;9.00;56.60
68766;DHT22;55756;45.582;11.484;2023-03-05T06:38:36;9.00;56.90
68766;DHT22;55756;45.582;11.484;2023-03-05T06:41:10;9.10;56.90
68766;DHT22;55756;45.582;11.484;2023-03-05T06:43:39;9.10;57.00
68766;DHT22;55756;45.582;11.484;2023-03-05T06:46:14;9.10;57.20
68766;DHT22;55756;45.582;11.484;2023-03-05T06:48:44;9.10;57.40
68766;DHT22;55756;45.582;11.484;2023-03-05T06:51:24;9.10;57.40
68766;DHT22;55756;45.582;11.484;2023-03-05T06:53:51;9.10;57.50
68766;DHT22;55756;45.582;11.484;2023-03-05T06:56:17;9.10;57.60
68766;DHT22;55756;45.582;11.484;2023-03-05T06:58:45;9.20;57.70
68766;DHT22;55756;45.582;11.484;2023-03-05T07:01:14;9.30;57.70
68766;DHT22;55756;45.582;11.484;2023-03-05T07:03:41;9.30;57.70
68766;DHT22;55756;45.582;11.484;2023-03-05T07:06:10;9.40;57.90
68766;DHT22;55756;45.582;11.484;2023-03-05T07:08:36;9.50;58.00
68766;DHT22;55756;45.582;11.484;2023-03-05T07:11:02;9.50;58.00
68766;DHT22;55756;45.582;11.484;2023-03-05T07:13:28;9.50;57.90
68766;DHT22;55756;45.582;11.484;2023-03-05T07:15:55;9.60;58.30
68766;DHT22;55756;45.582;11.484;2023-03-05T07:18:20;9.70;58.50
68766;DHT22;55756;45.582;11.484;2023-03-05T07:20:46;9.70;58.50
68766;DHT22;55756;45.582;11.484;2023-03-05T07:23:12;9.80;58.70
68766;DHT22;55756;45.582;11.484;2023-03-05T07:25:38;9.90;58.70
68766;DHT22;55756;45.582;11.484;2023-03-05T07:28:04;9.90;58.60
68766;DHT22;55756;45.582;11.484;2023-03-05T07:30:32;10.00;58.60
68766;DHT22;55756;45.582;11.484;2023-03-05T07:32:58;10.00;58.40
68766;DHT22;55756;45.582;11.484;2023-03-05T07:35:25;10.00;58.40
68766;DHT22;55756;45.582;11.484;2023-03-05T07:37:51;10.10;58.40
68766;DHT22;55756;45.582;11.484;2023-03-05T07:40:20;10.20;59.20
68766;DHT22;55756;45.582;11.484;2023-03-05T07:42:49;10.20;59.90
68766;DHT22;55756;45.582;11.484;2023-03-05T07:45:23;10.30;60.30
68766;DHT22;55756;45.582;11.484;2023-03-05T07:47:51;10.40;60.30
68766;DHT22;55756;45.582;11.484;2023-03-05T07:50:17;10.40;60.50
68766;DHT22;55756;45.582;11.484;2023-03-05T07:52:43;10.50;60.90
68766;DHT22;55756;45.582;11.484;2023-03-05T07:55:09;10.50;60.70
68766;DHT22;55756;45.582;11.484;2023-03-05T07:57:35;10.60;60.80
68766;DHT22;55756;45.582;11.484;2023-03-05T08:00:04;10.60;61.00
68766;DHT22;55756;45.582;11.484;2023-03-05T08:02:37;10.60;61.00
68766;DHT22;55756;45.582;11.484;2023-03-05T08:05:03;10.70;60.90
68766;DHT22;55756;45.582;11.484;2023-03-05T08:07:28;10.70;60.50
68766;DHT22;55756;45.582;11.484;2023-03-05T08:09:55;10.70;60.50
68766;DHT22;55756;45.582;11.484;2023-03-05T08:12:21;10.80;61.00
68766;DHT22;55756;45.582;11.484;2023-03-05T08:14:47;10.90;61.20
68766;DHT22;55756;45.582;11.484;2023-03-05T08:17:13;10.90;61.00
68766;DHT22;55756;45.582;11.484;2023-03-05T08:19:39;10.90;60.60
68766;DHT22;55756;45.582;11.484;2023-03-05T08:22:04;11.00;60.50
68766;DHT22;55756;45.582;11.484;2023-03-05T08:24:30;11.10;60.80
68766;DHT22;55756;45.582;11.484;2023-03-05T08:26:57;11.10;61.00
68766;DHT22;55756;45.582;11.484;2023-03-05T08:29:24;11.20;60.80
68766;DHT22;55756;45.582;11.484;2023-03-05T08:31:50;11.20;61.10
68766;DHT22;55756;45.582;11.484;2023-03-05T08:34:19;11.30;61.00
68766;DHT22;55756;45.582;11.484;2023-03-05T08:36:45;11.40;61.00
68766;DHT22;55756;45.582;11.484;2023-03-05T08:39:11;11.50;60.60
68766;DHT22;55756;45.582;11.484;2023-03-05T08:41:37;11.50;60.20
68766;DHT22;55756;45.582;11.484;2023-03-05T08:44:03;11.60;59.70
68766;DHT22;55756;45.582;11.484;2023-03-05T08:46:29;11.70;59.50
68766;DHT22;55756;45.582;11.484;2023-03-05T08:49:01;11.80;59.50
68766;DHT22;55756;45.582;11.484;2023-03-05T08:51:27;11.90;59.10
68766;DHT22;55756;45.582;11.484;2023-03-05T08:53:55;12.00;57.90
68766;DHT22;55756;45.582;11.484;2023-03-05T08:56:22;12.10;56.70
68766;DHT22;55756;45.582;11.484;2023-03-05T08:58:48;12.10;56.00
68766;DHT22;55756;45.582;11.484;2023-03-05T09:01:14;12.20;55.40
68766;DHT22;55756;45.582;11.484;2023-03-05T09:03:40;12.30;54.50
68766;DHT22;55756;45.582;11.484;2023-03-05T09:06:08;12.40;53.80
68766;DHT22;55756;45.582;11.484;2023-03-05T09:08:35;12.50;53.60
68766;DHT22;55756;45.582;11.484;2023-03-05T09:11:06;12.60;53.60
68766;DHT22;55756;45.582;11.484;2023-03-05T09:13:32;12.70;52.20
68766;DHT22;55756;45.582;11.484;2023-03-05T09:27:37;13.00;51.10
68766;DHT22;55756;45.582;11.484;2023-03-05T09:30:04;13.10;51.20
68766;DHT22;55756;45.582;11.484;2023-03-05T09:32:30;13.20;51.80
68766;DHT22;55756;45.582;11.484;2023-03-05T09:34:57;13.20;51.50
68766;DHT22;55756;45.582;11.484;2023-03-05T09:37:23;13.20;51.30
68766;DHT22;55756;45.582;11.484;2023-03-05T09:39:48;13.30;51.10
68766;DHT22;55756;45.582;11.484;2023-03-05T09:42:25;13.40;50.90
68766;DHT22;55756;45.582;11.484;2023-03-05T09:45:27;13.50;50.70
68766;DHT22;55756;45.582;11.484;2023-03-05T09:56:04;13.60;49.40
68766;DHT22;55756;45.582;11.484;2023-03-05T09:58:37;13.70;50.20
68766;DHT22;55756;45.582;11.484;2023-03-05T10:01:12;13.70;50.20
68766;DHT22;55756;45.582;11.484;2023-03-05T10:04:00;13.80;50.20
68766;DHT22;55756;45.582;11.484;2023-03-05T10:06:31;13.80;49.80
68766;DHT22;55756;45.582;11.484;2023-03-05T10:09:25;13.80;50.40
68766;DHT22;55756;45.582;11.484;2023-03-05T10:12:03;13.90;49.90
68766;DHT22;55756;45.582;11.484;2023-03-05T10:14:34;13.90;49.30
68766;DHT22;55756;45.582;11.484;2023-03-05T10:28:15;14.10;49.50
68766;DHT22;55756;45.582;11.484;2023-03-05T10:36:50;14.20;48.10
68766;DHT22;55756;45.582;11.484;2023-03-05T10:42:40;14.40;47.60
68766;DHT22;55756;45.582;11.484;2023-03-05T10:45:17;14.40;47.70
68766;DHT22;55756;45.582;11.484;2023-03-05T10:48:01;14.40;47.50
68766;DHT22;55756;45.582;11.484;2023-03-05T10:50:39;14.40;47.50
68766;DHT22;55756;45.582;11.484;2023-03-05T10:55:40;14.50;48.20
68766;DHT22;55756;45.582;11.484;2023-03-05T10:58:14;14.50;48.10
68766;DHT22;55756;45.582;11.484;2023-03-05T11:00:58;14.60;47.60
68766;DHT22;55756;45.582;11.484;2023-03-05T11:03:24;14.60;47.50
68766;DHT22;55756;45.582;11.484;2023-03-05T11:05:58;14.60;47.30
68766;DHT22;55756;45.582;11.484;2023-03-05T11:08:36;14.70;47.90
68766;DHT22;55756;45.582;11.484;2023-03-05T11:11:19;14.70;47.50
68766;DHT22;55756;45.582;11.484;2023-03-05T11:16:28;14.70;47.00
68766;DHT22;55756;45.582;11.484;2023-03-05T11:19:20;14.80;47.20
68766;DHT22;55756;45.582;11.484;2023-03-05T11:22:23;14.80;46.50
68766;DHT22;55756;45.582;11.484;2023-03-05T11:25:18;14.80;47.30
68766;DHT22;55756;45.582;11.484;2023-03-05T11:28:24;14.90;47.60
68766;DHT22;55756;45.582;11.484;2023-03-05T11:36:22;15.00;46.70
68766;DHT22;55756;45.582;11.484;2023-03-05T11:44:58;15.00;46.70
68766;DHT22;55756;45.582;11.484;2023-03-05T11:49:48;15.10;46.60
68766;DHT22;55756;45.582;11.484;2023-03-05T11:52:30;15.10;46.90
68766;DHT22;55756;45.582;11.484;2023-03-05T11:55:06;15.20;47.00
68766;DHT22;55756;45.582;11.484;2023-03-05T11:58:42;15.30;47.30
68766;DHT22;55756;45.582;11.484;2023-03-05T12:00:49;15.30;46.70
68766;DHT22;55756;45.582;11.484;2023-03-05T12:03:21;15.30;46.80
68766;DHT22;55756;45.582;11.484;2023-03-05T12:08:48;15.50;47.10
68766;DHT22;55756;45.582;11.484;2023-03-05T12:11:22;15.50;47.40
68766;DHT22;55756;45.582;11.484;2023-03-05T12:15:02;15.50;46.90
68766;DHT22;55756;45.582;11.484;2023-03-05T12:17:36;15.50;46.50
68766;DHT22;55756;45.582;11.484;2023-03-05T12:20:36;15.60;46.50
68766;DHT22;55756;45.582;11.484;2023-03-05T12:22:59;15.60;47.10
68766;DHT22;55756;45.582;11.484;2023-03-05T12:31:26;15.70;46.50
68766;DHT22;55756;45.582;11.484;2023-03-05T12:33:52;15.80;46.50
68766;DHT22;55756;45.582;11.484;2023-03-05T12:38:50;15.80;46.50
68766;DHT22;55756;45.582;11.484;2023-03-05T12:51:52;15.90;46.70
68766;DHT22;55756;45.582;11.484;2023-03-05T12:54:31;16.00;46.30
68766;DHT22;55756;45.582;11.484;2023-03-05T12:57:00;16.00;46.50
68766;DHT22;55756;45.582;11.484;2023-03-05T12:59:32;16.00;46.40
68766;DHT22;55756;45.582;11.484;2023-03-05T13:02:02;16.00;46.70
68766;DHT22;55756;45.582;11.484;2023-03-05T13:04:31;16.00;46.30
68766;DHT22;55756;45.582;11.484;2023-03-05T13:07:14;16.00;46.40
68766;DHT22;55756;45.582;11.484;2023-03-05T13:09:57;16.00;46.20
68766;DHT22;55756;45.582;11.484;2023-03-05T13:12:25;16.00;46.50
68766;DHT22;55756;45.582;11.484;2023-03-05T13:15:05;16.10;46.10
68766;DHT22;55756;45.582;11.484;2023-03-05T13:17:39;16.10;46.30
68766;DHT22;55756;45.582;11.484;2023-03-05T13:23:19;16.10;46.30
68766;DHT22;55756;45.582;11.484;2023-03-05T13:28:28;16.10;46.20
68766;DHT22;55756;45.582;11.484;2023-03-05T13:33:28;16.20;45.40
68766;DHT22;55756;45.582;11.484;2023-03-05T13:35:55;16.20;45.70
68766;DHT22;55756;45.582;11.484;2023-03-05T13:38:53;16.20;46.10
68766;DHT22;55756;45.582;11.484;2023-03-05T13:41:21;16.20;46.30
68766;DHT22;55756;45.582;11.484;2023-03-05T13:43:53;16.30;46.30
68766;DHT22;55756;45.582;11.484;2023-03-05T13:46:24;16.30;46.00
68766;DHT22;55756;45.582;11.484;2023-03-05T13:48:50;16.30;45.90
68766;DHT22;55756;45.582;11.484;2023-03-05T13:51:18;16.30;46.20
68766;DHT22;55756;45.582;11.484;2023-03-05T13:53:44;16.40;46.00
68766;DHT22;55756;45.582;11.484;2023-03-05T13:56:18;16.40;45.60
68766;DHT22;55756;45.582;11.484;2023-03-05T13:58:55;16.40;45.70
68766;DHT22;55756;45.582;11.484;2023-03-05T14:01:42;16.40;46.40
68766;DHT22;55756;45.582;11.484;2023-03-05T14:09:28;16.40;45.70
68766;DHT22;55756;45.582;11.484;2023-03-05T14:14:51;16.50;46.40
68766;DHT22;55756;45.582;11.484;2023-03-05T14:19:47;16.50;46.20
68766;DHT22;55756;45.582;11.484;2023-03-05T14:22:34;16.60;46.40
68766;DHT22;55756;45.582;11.484;2023-03-05T14:25:02;16.50;46.50
68766;DHT22;55756;45.582;11.484;2023-03-05T14:27:34;16.50;46.20
68766;DHT22;55756;45.582;11.484;2023-03-05T14:30:04;16.50;46.10
68766;DHT22;55756;45.582;11.484;2023-03-05T14:32:33;16.50;45.80
68766;DHT22;55756;45.582;11.484;2023-03-05T14:35:01;16.50;46.10
68766;DHT22;55756;45.582;11.484;2023-03-05T14:37:40;16.60;45.90
68766;DHT22;55756;45.582;11.484;2023-03-05T14:43:03;16.60;45.30
68766;DHT22;55756;45.582;11.484;2023-03-05T14:45:32;16.60;45.50
68766;DHT22;55756;45.582;11.484;2023-03-05T14:48:00;16.60;45.40
68766;DHT22;55756;45.582;11.484;2023-03-05T14:50:45;16.60;45.50
68766;DHT22;55756;45.582;11.484;2023-03-05T14:53:17;16.60;45.60
68766;DHT22;55756;45.582;11.484;2023-03-05T14:55:45;16.60;45.70
68766;DHT22;55756;45.582;11.484;2023-03-05T14:58:19;16.70;44.80
68766;DHT22;55756;45.582;11.484;2023-03-05T15:00:46;16.70;44.50
68766;DHT22;55756;45.582;11.484;2023-03-05T15:03:14;16.70;45.50
68766;DHT22;55756;45.582;11.484;2023-03-05T15:05:46;16.70;45.80
68766;DHT22;55756;45.582;11.484;2023-03-05T15:08:24;16.70;46.30
68766;DHT22;55756;45.582;11.484;2023-03-05T15:10:51;16.80;46.60
68766;DHT22;55756;45.582;11.484;2023-03-05T15:13:17;16.70;46.30
68766;DHT22;55756;45.582;11.484;2023-03-05T15:15:45;16.80;46.50
68766;DHT22;55756;45.582;11.484;2023-03-05T15:18:16;16.80;46.80
68766;DHT22;55756;45.582;11.484;2023-03-05T15:20:43;16.80;46.50
68766;DHT22;55756;45.582;11.484;2023-03-05T15:23:09;16.80;46.10
68766;DHT22;55756;45.582;11.484;2023-03-05T15:25:36;16.80;46.40
68766;DHT22;55756;45.582;11.484;2023-03-05T15:28:02;16.70;46.50
68766;DHT22;55756;45.582;11.484;2023-03-05T15:30:40;16.70;46.70
68766;DHT22;55756;45.582;11.484;2023-03-05T15:33:08;16.70;46.50
68766;DHT22;55756;45.582;11.484;2023-03-05T15:35:36;16.70;46.80
68766;DHT22;55756;45.582;11.484;2023-03-05T15:38:02;16.70;47.30
68766;DHT22;55756;45.582;11.484;2023-03-05T15:40:28;16.60;47.10
68766;DHT22;55756;45.582;11.484;2023-03-05T15:42:54;16.70;47.00
68766;DHT22;55756;45.582;11.484;2023-03-05T15:45:20;16.60;47.30
68766;DHT22;55756;45.582;11.484;2023-03-05T15:47:51;16.60;47.20
68766;DHT22;55756;45.582;11.484;2023-03-05T15:50:19;16.60;47.30
68766;DHT22;55756;45.582;11.484;2023-03-05T15:52:45;16.60;47.70
68766;DHT22;55756;45.582;11.484;2023-03-05T15:55:11;16.60;47.70
68766;DHT22;55756;45.582;11.484;2023-03-05T15:57:41;16.50;47.50
68766;DHT22;55756;45.582;11.484;2023-03-05T16:00:10;16.50;47.60
68766;DHT22;55756;45.582;11.484;2023-03-05T16:02:36;16.50;47.40
68766;DHT22;55756;45.582;11.484;2023-03-05T16:05:02;16.50;47.20
68766;DHT22;55756;45.582;11.484;2023-03-05T16:07:28;16.50;47.30
68766;DHT22;55756;45.582;11.484;2023-03-05T16:09:55;16.50;47.60
68766;DHT22;55756;45.582;11.484;2023-03-05T16:12:28;16.40;47.90
68766;DHT22;55756;45.582;11.484;2023-03-05T16:14:55;16.40;48.10
68766;DHT22;55756;45.582;11.484;2023-03-05T16:17:21;16.40;48.30
68766;DHT22;55756;45.582;11.484;2023-03-05T16:19:51;16.40;48.10
68766;DHT22;55756;45.582;11.484;2023-03-05T16:22:17;16.40;47.90
68766;DHT22;55756;45.582;11.484;2023-03-05T16:24:43;16.40;48.20
68766;DHT22;55756;45.582;11.484;2023-03-05T16:27:09;16.30;48.20
68766;DHT22;55756;45.582;11.484;2023-03-05T16:29:35;16.30;48.10
68766;DHT22;55756;45.582;11.484;2023-03-05T16:32:03;16.30;48.30
68766;DHT22;55756;45.582;11.484;2023-03-05T16:34:30;16.30;48.30
68766;DHT22;55756;45.582;11.484;2023-03-05T16:36:57;16.30;48.30
68766;DHT22;55756;45.582;11.484;2023-03-05T16:39:25;16.30;48.20
68766;DHT22;55756;45.582;11.484;2023-03-05T16:41:51;16.30;48.10
68766;DHT22;55756;45.582;11.484;2023-03-05T16:44:18;16.30;48.00
68766;DHT22;55756;45.582;11.484;2023-03-05T16:46:43;16.30;48.00
68766;DHT22;55756;45.582;11.484;2023-03-05T16:49:14;16.30;48.00
68766;DHT22;55756;45.582;11.484;2023-03-05T16:51:40;16.30;48.10
68766;DHT22;55756;45.582;11.484;2023-03-05T16:54:06;16.30;48.20
68766;DHT22;55756;45.582;11.484;2023-03-05T16:56:32;16.30;48.30
68766;DHT22;55756;45.582;11.484;2023-03-05T16:58:57;16.20;48.50
68766;DHT22;55756;45.582;11.484;2023-03-05T17:01:23;16.20;48.60
68766;DHT22;55756;45.582;11.484;2023-03-05T17:03:50;16.20;48.70
68766;DHT22;55756;45.582;11.484;2023-03-05T17:06:24;16.20;48.90
68766;DHT22;55756;45.582;11.484;2023-03-05T17:08:51;16.20;48.90
68766;DHT22;55756;45.582;11.484;2023-03-05T17:11:17;16.10;49.00
68766;DHT22;55756;45.582;11.484;2023-03-05T17:13:43;16.10;49.00
68766;DHT22;55756;45.582;11.484;2023-03-05T17:16:11;16.10;49.00
68766;DHT22;55756;45.582;11.484;2023-03-05T17:18:37;16.10;48.90
68766;DHT22;55756;45.582;11.484;2023-03-05T17:21:04;16.00;48.80